Newberg, North Dakota
Current Conditions -  °F | °C
As of 3:58 AM on Thursday 18 Dec 2014 (Local Time) from KMIB Reporting Station
Overcast Overcast  
Wind Chill:   Ceiling: 10000
Heat Index: 13°   Visibility: 10mi
Dew Point: 13°   Wind: 7mph
Humidity: 98%   Direction: 150°SSE
Pressure: 30.09"   Gusts: NA
Location:  48.6879°N, 101.011°W
Report Text: KMIB 180958Z AUTO 15006KT 10SM SCT070 OVC100 M11/M11 A3009 RMK AO2 CIG 070 RWY29 SLP230 T11061108 $
Loading
Personal Weather Stations






























Interactive Weather Map New forecast layout! Learn more

10-Day Weather Forecast

Advertisements
Track Severe Weather on mobile